Latest Weather Observations for Richmond

IDN60901

Issued at 4:51 pm EDT Sunday 26 February 2017 (issued every 10 minutes, with the page automatically refreshed every 10 minutes)

About weather observations | Map of Sydney area stations | Latest observations for Sydney area | Other Formats
Station Details ID: 067105 Name: RICHMOND RAAF Lat: -33.60 Lon: 150.78 Height: 19.0 m
Data from the previous 72 hours. | See also: Recent months at Richmond
Date/Time
EDT
Temp
°C
App
Temp
°C
Dew
Point
°C
Rel
Hum
%
Delta-T
°C
Wind Press
QNH
hPa
Press
MSL
hPa
Rain since
9am
mm
Dir  Spd
km/h
Gust
km/h
Spd
kts
Gust
kts
26/04:30pm 24.3 21.5 13.2 50 6.4 SSE 20 26 11 14 1021.0 1020.9 0.2
26/04:00pm 24.3 21.4 12.9 49 6.6 SSE 20 28 11 15 1021.1 1021.0 0.2
26/03:30pm 24.7 22.2 14.2 52 6.2 S 20 28 11 15 1021.2 1021.1 0.2
26/03:00pm 24.9 21.7 13.1 48 6.8 SE 22 30 12 16 1021.6 1021.5 0.2
26/02:30pm 26.0 23.5 14.1 47 7.1 SSE 20 28 11 15 1021.7 1021.6 0.2
26/02:00pm 25.5 22.5 13.7 48 6.9 S 22 35 12 19 1021.9 1021.8 0.2
26/01:30pm 24.8 22.5 14.0 51 6.4 SSE 19 32 10 17 1022.2 1022.1 0.2
26/01:00pm 24.4 22.0 15.3 57 5.5 S 22 32 12 17 1022.6 1022.5 0.2
26/12:30pm 22.5 20.4 15.1 63 4.4 S 20 30 11 16 1022.9 1022.8 0.2
26/12:00pm 22.4 21.6 16.0 67 3.8 S 15 24 8 13 1023.1 1023.0 0.2
26/11:30am 21.0 20.8 16.8 77 2.6 SSW 13 17 7 9 1023.3 1023.2 0.2
26/11:00am 20.6 19.6 16.6 78 2.4 SW 17 24 9 13 1023.3 1023.2 0.0
26/10:30am 21.5 21.5 17.3 77 2.6 SW 13 17 7 9 1023.2 1023.1 0.0
26/10:00am 20.6 20.2 17.2 81 2.1 SW 15 20 8 11 1023.1 1023.0 0.0
26/09:30am 20.0 19.6 17.2 84 1.7 SW 15 19 8 10 1022.7 1022.6 0.0
26/09:00am 19.3 20.0 18.0 92 0.8 WSW 11 15 6 8 1022.5 1022.4 10.4
26/08:30am 18.5 19.1 17.7 95 0.5 WSW 11 17 6 9 1022.2 1022.1 10.4
26/08:00am 18.2 18.9 17.9 98 0.2 WSW 11 15 6 8 1021.9 1021.8 10.4
26/07:30am 17.9 17.7 17.7 99 0.1 SW 15 20 8 11 1021.5 1021.4 10.4
26/07:00am 17.9 18.5 17.7 99 0.1 SW 11 15 6 8 1021.2 1021.1 10.0
26/06:30am 17.8 17.6 17.6 99 0.1 SSW 15 19 8 10 1021.1 1021.0 10.0
26/06:00am 17.7 19.2 17.5 99 0.1 SSW 6 9 3 5 1021.0 1020.9 9.8
26/05:46am 17.7 19.0 17.5 99 0.1 S 7 9 4 5 1020.8 1020.7 9.2
26/05:30am 17.7 18.2 17.5 99 0.1 SW 11 13 6 7 1020.5 1020.4 9.0
26/05:06am 17.4 18.2 17.2 99 0.1 SW 9 13 5 7 1020.4 1020.3 8.4
26/05:00am 17.2 17.5 17.0 99 0.1 SW 11 13 6 7 1020.4 1020.3 8.4
26/04:30am 17.3 16.8 17.0 98 0.2 S 15 20 8 11 1020.3 1020.2 6.4
26/04:19am 17.2 15.9 16.9 98 0.2 S 19 30 10 16 1020.0 1019.9 6.0
26/04:16am 17.1 15.5 16.6 97 0.3 S 20 33 11 18 1020.0 1019.9 6.0
26/04:00am 17.4 14.5 17.1 98 0.2 SSE 28 39 15 21 1020.1 1020.0 5.2
26/03:44am 18.1 16.9 17.6 97 0.3 SSE 20 30 11 16 1019.9 1019.8 1.8
26/03:30am 18.7 18.4 18.2 97 0.3 S 17 24 9 13 1019.8 1019.7 0.2
26/03:00am 18.9 19.5 17.6 92 0.8 SSW 11 17 6 9 1019.9 1019.8 0.0
26/02:37am 19.0 19.9 17.5 91 0.9 SW 9 13 5 7 1020.0 1019.9 0.0
26/02:30am 19.0 19.9 17.5 91 0.9 SW 9 13 5 7 1020.0 1019.9 0.0
26/02:00am 18.9 20.2 17.6 92 0.8 SW 7 7 4 4 1020.1 1020.0 0.0
26/01:30am 18.9 21.5 17.4 91 0.9 CALM 0 0 0 0 1020.4 1020.3 0.0
26/01:00am 19.0 20.5 17.5 91 0.9 SW 6 9 3 5 1020.7 1020.6 0.0
26/12:30am 18.8 19.7 17.6 93 0.7 WSW 9 13 5 7 1020.7 1020.6 0.0
26/12:00am 18.8 20.3 18.1 96 0.4 WSW 7 9 4 5 1020.6 1020.5 0.0
 
Date/Time
EDT
Temp
°C
App
Temp
°C
Dew
Point
°C
Rel
Hum
%
Delta-T
°C
Wind Press
QNH
hPa
Press
MSL
hPa
Rain since
9am
mm
Dir  Spd
km/h
Gust
km/h
Spd
kts
Gust
kts
25/11:30pm 18.7 20.5 18.2 97 0.3 SW 6 7 3 4 1020.6 1020.5 0.0
25/11:00pm 18.5 20.9 18.0 97 0.3 W 2 7 1 4 1020.8 1020.7 0.0
25/10:30pm 18.4 19.9 18.1 98 0.2 WSW 7 9 4 5 1020.8 1020.7 0.0
25/10:00pm 18.3 19.4 18.0 98 0.2 WSW 9 11 5 6 1020.8 1020.7 0.0
25/09:39pm 18.4 19.5 18.1 98 0.2 W 9 11 5 6 1020.7 1020.6 0.0
25/09:30pm 18.3 19.4 18.0 98 0.2 WSW 9 11 5 6 1020.7 1020.6 0.0
25/09:23pm 18.4 19.9 18.1 98 0.2 WSW 7 11 4 6 1020.7 1020.6 0.0
25/09:00pm 18.4 19.8 17.9 97 0.3 SW 7 9 4 5 1020.7 1020.6 0.0
25/08:30pm 18.6 19.2 17.8 95 0.5 SSW 11 13 6 7 1020.6 1020.5 0.0
25/08:00pm 19.2 19.4 16.8 86 1.4 SSW 11 17 6 9 1020.7 1020.6 0.0
25/07:30pm 19.9 21.8 16.7 82 1.9 SSE 2 6 1 3 1020.3 1020.2 0.0
25/07:00pm 19.8 19.1 16.4 81 2.0 S 15 19 8 10 1020.3 1020.2 0.0
25/06:30pm 20.7 19.5 16.1 75 2.8 S 17 22 9 12 1019.7 1019.6 0.0
25/06:00pm 21.2 20.9 16.4 74 2.9 SSE 13 20 7 11 1019.5 1019.4 0.0
25/05:30pm 20.9 21.0 16.5 76 2.7 S 11 15 6 8 1019.7 1019.6 0.0
25/05:00pm 20.6 20.7 16.4 77 2.5 SSW 11 17 6 9 1019.9 1019.8 0.0
25/04:30pm 20.5 19.8 16.5 78 2.4 S 15 20 8 11 1020.0 1019.9 0.0
25/04:00pm 20.7 20.3 16.1 75 2.8 S 13 19 7 10 1020.1 1020.0 0.0
25/03:30pm 21.0 20.3 16.4 75 2.8 S 15 20 8 11 1020.2 1020.1 0.0
25/03:00pm 20.9 20.6 16.5 76 2.7 SSW 13 20 7 11 1020.3 1020.2 0.0
25/02:30pm 21.2 21.0 16.8 76 2.7 S 13 17 7 9 1020.5 1020.4 0.0
25/02:00pm 20.9 19.9 16.7 77 2.5 S 17 24 9 13 1020.8 1020.7 0.0
25/01:30pm 20.6 19.7 16.8 79 2.3 S 17 24 9 13 1021.0 1020.9 0.0
25/01:12pm 20.4 20.5 16.6 79 2.3 S 11 19 6 10 1021.1 1021.0 0.0
25/01:00pm 20.2 20.3 16.6 80 2.2 SSW 11 17 6 9 1021.0 1020.9 0.0
25/12:30pm 20.0 20.6 17.8 87 1.4 SSW 11 17 6 9 1021.3 1021.2 0.0
25/12:00pm 19.5 19.8 17.8 90 1.0 SSW 13 19 7 10 1021.4 1021.3 0.0
25/11:55am 19.4 19.7 17.9 91 0.9 S 13 19 7 10 1021.5 1021.4 0.0
25/11:42am 18.9 18.6 17.4 91 0.9 SSW 15 20 8 11 1021.7 1021.6 0.0
25/11:30am 19.0 19.3 17.8 93 0.7 SSW 13 19 7 10 1021.7 1021.6 0.0
25/11:19am 18.8 19.0 17.6 93 0.7 SSW 13 19 7 10 1021.8 1021.7 0.0
25/11:00am 19.0 19.6 17.7 92 0.8 S 11 15 6 8 1021.7 1021.6 0.0
25/10:30am 19.2 19.2 17.3 89 1.2 SSW 13 19 7 10 1021.6 1021.5 0.0
25/10:00am 19.6 19.5 17.0 85 1.6 SSW 13 19 7 10 1021.3 1021.2 0.0
25/09:30am 19.3 20.2 17.6 90 1.0 SW 9 13 5 7 1021.2 1021.1 0.0
25/09:00am 19.1 19.7 17.8 92 0.8 SW 11 15 6 8 1021.0 1020.9 5.4
25/08:30am 18.8 19.8 17.8 94 0.6 SW 9 17 5 9 1020.9 1020.8 5.4
25/08:00am 19.1 20.5 18.6 97 0.3 SW 9 11 5 6 1020.8 1020.7 5.0
25/07:30am 19.0 20.3 18.5 97 0.3 SW 9 13 5 7 1020.4 1020.3 4.8
25/07:00am 19.0 20.3 18.5 97 0.3 SW 9 13 5 7 1020.0 1019.9 4.8
25/06:30am 19.2 20.6 18.7 97 0.3 SW 9 13 5 7 1019.8 1019.7 4.2
25/06:00am 19.7 20.1 18.2 91 0.9 SSW 13 19 7 10 1019.5 1019.4 3.8
25/05:30am 19.9 20.4 18.4 91 0.9 SSW 13 19 7 10 1019.3 1019.2 3.8
25/05:00am 20.1 19.8 18.2 89 1.2 S 17 20 9 11 1019.4 1019.3 3.8
25/04:30am 20.6 21.6 18.7 89 1.2 S 11 17 6 9 1019.2 1019.1 3.8
25/04:00am 20.8 21.4 18.7 88 1.3 S 13 17 7 9 1019.0 1018.9 3.8
25/03:30am 20.9 22.0 18.8 88 1.3 S 11 19 6 10 1019.0 1018.9 3.8
25/03:00am 21.0 21.7 18.9 88 1.3 S 13 19 7 10 1019.1 1019.0 3.8
25/02:30am 21.1 23.2 20.1 94 0.6 SSW 9 13 5 7 1019.0 1018.9 3.8
25/02:14am 21.0 23.1 20.2 95 0.5 SSW 9 13 5 7 1019.1 1019.0 3.8
25/02:00am 21.0 23.5 20.2 95 0.5 S 7 13 4 7 1019.2 1019.1 3.6
25/01:48am 21.1 22.9 20.3 95 0.5 S 11 19 6 10 1019.3 1019.2 3.0
25/01:33am 21.1 22.1 20.3 95 0.5 S 15 22 8 12 1019.5 1019.4 2.4
25/01:30am 21.3 22.4 20.5 95 0.5 S 15 22 8 12 1019.6 1019.5 2.2
25/01:00am 21.7 24.4 20.7 94 0.6 SSE 7 11 4 6 1019.9 1019.8 1.2
25/12:30am 22.0 24.5 21.0 94 0.7 SSW 9 11 5 6 1019.9 1019.8 1.0
25/12:00am 21.8 24.1 20.6 93 0.8 WSW 9 11 5 6 1019.5 1019.4 1.0
 
Date/Time
EDT
Temp
°C
App
Temp
°C
Dew
Point
°C
Rel
Hum
%
Delta-T
°C
Wind Press
QNH
hPa
Press
MSL
hPa
Rain since
9am
mm
Dir  Spd
km/h
Gust
km/h
Spd
kts
Gust
kts
24/11:57pm 21.8 24.1 20.6 93 0.8 WSW 9 11 5 6 1019.5 1019.4 1.0
24/11:44pm 21.9 24.3 20.9 94 0.7 W 9 13 5 7 1019.6 1019.5 1.0
24/11:30pm 22.1 24.3 20.4 90 1.1 SW 9 13 5 7 1019.7 1019.6 1.0
24/11:00pm 23.1 25.3 19.5 80 2.3 S 7 11 4 6 1020.1 1020.0 0.0
24/10:30pm 22.9 23.9 19.5 81 2.2 SSW 13 17 7 9 1020.3 1020.2 0.0
24/10:00pm 24.0 25.1 19.7 77 2.8 S 13 19 7 10 1020.3 1020.2 0.0
24/09:30pm 24.2 24.6 19.9 77 2.8 SE 17 22 9 12 1019.8 1019.7 0.0
24/09:00pm 24.5 25.0 20.0 76 2.9 SE 17 22 9 12 1019.4 1019.3 0.0
24/08:30pm 24.9 25.0 18.4 67 4.1 E 15 22 8 12 1018.8 1018.7 0.0
24/08:00pm 25.3 24.6 18.2 64 4.5 E 19 24 10 13 1018.2 1018.1 0.0
24/07:30pm 25.6 25.5 17.8 62 4.9 E 15 20 8 11 1017.7 1017.6 0.0
24/07:00pm 26.2 25.6 17.6 59 5.4 E 17 22 9 12 1017.4 1017.3 0.0
24/06:30pm 27.2 26.1 17.7 56 6.0 ESE 20 26 11 14 1017.3 1017.2 0.0
24/06:00pm 27.8 28.0 17.6 53 6.4 ENE 13 20 7 11 1017.2 1017.1 0.0
24/05:30pm 28.2 27.7 17.7 53 6.6 ENE 17 24 9 13 1016.9 1016.8 0.0
24/05:00pm 28.8 27.8 18.0 52 6.9 E 20 30 11 16 1016.6 1016.5 0.0
24/04:30pm 28.1 26.8 17.3 52 6.8 E 20 28 11 15 1016.9 1016.8 0.0
24/04:00pm 29.4 28.6 17.9 50 7.3 E 19 32 10 17 1017.2 1017.1 0.0
24/03:30pm 27.4 26.2 17.6 55 6.2 ESE 20 26 11 14 1017.3 1017.2 0.0
24/03:00pm 28.9 27.8 17.4 49 7.3 SE 19 24 10 13 1017.5 1017.4 0.0
24/02:30pm 29.5 28.1 17.0 47 7.9 SE 20 30 11 16 1017.6 1017.5 0.0
24/02:00pm 29.8 28.5 16.9 45 8.1 E 19 28 10 15 1017.8 1017.7 0.0
24/01:30pm 31.3 30.8 17.9 44 8.6 ENE 17 26 9 14 1018.3 1018.2 0.0
24/01:00pm 29.7 29.1 17.5 48 7.7 E 17 28 9 15 1018.8 1018.7 0.0
24/12:30pm 29.2 29.0 16.7 46 7.8 E 13 24 7 13 1019.4 1019.3 0.0
24/12:00pm 28.9 30.7 18.4 53 6.7 W 6 13 3 7 1019.7 1019.6 0.0
24/11:30am 27.2 28.6 17.7 56 6.0 SSW 7 11 4 6 1020.2 1020.1 0.0
24/11:00am 26.3 27.0 17.1 57 5.7 SE 9 17 5 9 1020.7 1020.6 0.0
24/10:30am 26.9 27.7 18.2 59 5.5 E 11 20 6 11 1020.9 1020.8 0.0
24/10:00am 25.6 26.9 17.5 61 5.1 SE 7 13 4 7 1020.8 1020.7 0.0
24/09:30am 24.9 25.8 18.4 67 4.1 S 11 17 6 9 1020.8 1020.7 0.0
24/09:00am 23.7 24.1 18.1 71 3.5 SSW 13 19 7 10 1020.8 1020.7 0.0
24/08:30am 23.2 23.4 18.5 75 3.0 SSW 15 19 8 10 1020.5 1020.4 0.0
24/08:00am 21.5 22.1 17.7 79 2.3 SSW 11 15 6 8 1020.2 1020.1 0.0
24/07:30am 20.0 20.8 17.4 85 1.6 SW 9 11 5 6 1019.9 1019.8 0.0
24/07:00am 18.9 19.5 16.7 87 1.3 SW 9 11 5 6 1019.4 1019.3 0.0
24/06:30am 19.0 19.8 16.4 85 1.6 SSW 7 11 4 6 1018.8 1018.7 0.0
24/06:00am 18.9 19.4 16.5 86 1.4 SW 9 11 5 6 1018.4 1018.3 0.0
24/05:30am 19.2 19.5 17.0 87 1.3 WSW 11 13 6 7 1018.2 1018.1 0.0
24/05:00am 19.5 20.6 17.1 86 1.5 WSW 7 9 4 5 1017.9 1017.8 0.0
24/04:30am 19.0 19.6 16.8 87 1.3 SW 9 11 5 6 1017.7 1017.6 0.0
24/04:00am 19.0 19.5 16.6 86 1.4 SSW 9 11 5 6 1017.6 1017.5 0.0
24/03:30am 19.0 20.8 16.4 85 1.6 S 2 9 1 5 1017.3 1017.2 0.0
24/03:00am 18.9 20.8 15.8 82 1.8 CALM 0 0 0 0 1017.0 1016.9 0.0
24/02:30am 19.6 21.5 16.6 83 1.8 WSW 2 9 1 5 1017.1 1017.0 0.0
24/02:00am 20.4 22.7 16.8 80 2.2 CALM 0 0 0 0 1017.2 1017.1 0.0
24/01:30am 20.7 23.1 16.9 79 2.3 CALM 0 0 0 0 1017.4 1017.3 0.0
24/01:00am 20.8 22.9 16.2 75 2.8 CALM 0 0 0 0 1017.5 1017.4 0.0
24/12:30am 22.1 24.0 15.7 67 3.8 CALM 0 0 0 0 1017.6 1017.5 0.0
24/12:00am 23.3 24.3 16.4 65 4.2 ENE 6 9 3 5 1017.8 1017.7 0.0
 
Date/Time
EDT
Temp
°C
App
Temp
°C
Dew
Point
°C
Rel
Hum
%
Delta-T
°C
Wind Press
QNH
hPa
Press
MSL
hPa
Rain since
9am
mm
Dir  Spd
km/h
Gust
km/h
Spd
kts
Gust
kts
23/11:30pm 23.6 24.6 16.4 64 4.4 SE 6 7 3 4 1017.8 1017.7 0.0
23/11:00pm 24.2 25.6 16.5 62 4.7 SE 4 6 2 3 1018.0 1017.9 0.0
23/10:30pm 24.6 25.6 16.8 62 4.8 S 7 9 4 5 1018.1 1018.0 0.0
23/10:00pm 25.2 26.1 16.6 59 5.3 SSE 7 9 4 5 1018.0 1017.9 0.0
23/09:30pm 25.5 25.8 16.9 59 5.3 ESE 11 15 6 8 1017.7 1017.6 0.0
23/09:00pm 25.7 25.7 17.1 59 5.3 E 13 17 7 9 1017.4 1017.3 0.0
23/08:30pm 26.1 26.5 17.2 58 5.6 E 11 15 6 8 1016.9 1016.8 0.0
23/08:00pm 26.9 26.9 17.1 55 6.1 E 13 17 7 9 1016.5 1016.4 0.0
23/07:30pm 28.0 27.9 16.9 51 6.9 E 13 20 7 11 1016.1 1016.0 0.0
23/07:00pm 29.7 28.9 17.2 47 7.9 ENE 17 20 9 11 1015.5 1015.4 0.0
23/06:30pm 31.7 30.0 17.2 42 9.2 ENE 22 28 12 15 1015.1 1015.0 0.0
23/06:00pm 33.1 31.1 16.5 37 10.5 ENE 22 28 12 15 1014.7 1014.6 0.0
23/05:30pm 34.7 33.1 16.5 33 11.6 NE 20 28 11 15 1014.7 1014.6 0.0
23/05:00pm 35.5 34.2 17.2 33 11.8 ENE 20 32 11 17 1014.6 1014.5 0.0

Latest Capital City Observations: Canberra | Sydney | Melbourne | Brisbane | Adelaide | Perth | Hobart | Darwin

Other Formats:

Comma delimited format used in spreadsheet applications
http://www.bom.gov.au/fwo/IDN60901/IDN60901.95753.axf

JavaScript Object Notation format (JSON) in row-major order
http://www.bom.gov.au/fwo/IDN60901/IDN60901.95753.json